createdAt,value
2023-04-02T00:00:05.283Z,0.57
2023-04-02T00:02:48.341Z,0.50
2023-04-02T00:05:20.870Z,1.08
2023-04-02T00:07:50.107Z,0.47
2023-04-02T00:10:38.074Z,0.40
2023-04-02T00:13:10.506Z,0.40
2023-04-02T00:15:38.722Z,0.82
2023-04-02T00:18:06.618Z,0.70
2023-04-02T00:20:40.761Z,0.50
2023-04-02T00:23:10.310Z,0.70
2023-04-02T00:25:43.009Z,0.30
2023-04-02T00:28:15.053Z,0.65
2023-04-02T00:31:10.553Z,0.43
2023-04-02T00:33:37.952Z,0.30
2023-04-02T00:36:08.985Z,0.28
2023-04-02T00:38:35.874Z,0.25
2023-04-02T00:41:05.026Z,0.40
2023-04-02T00:43:36.363Z,0.70
2023-04-02T00:46:16.537Z,0.70
2023-04-02T00:48:56.564Z,0.55
2023-04-02T00:51:29.780Z,0.43
2023-04-02T00:54:00.458Z,0.77
2023-04-02T00:56:45.677Z,0.40
2023-04-02T00:59:18.206Z,0.40
2023-04-02T01:01:45.664Z,0.90
2023-04-02T01:04:29.546Z,0.52
2023-04-02T01:06:56.692Z,0.50
2023-04-02T01:09:44.570Z,0.40
2023-04-02T01:12:34.336Z,0.10
2023-04-02T01:15:09.948Z,0.40
2023-04-02T01:17:36.486Z,0.22
2023-04-02T01:20:35.081Z,0.15
2023-04-02T01:23:31.352Z,0.40
2023-04-02T01:26:13.962Z,0.32
2023-04-02T01:29:05.371Z,0.20
2023-04-02T01:31:34.694Z,0.30
2023-04-02T01:34:05.956Z,0.40
2023-04-02T01:36:33.280Z,0.20
2023-04-02T01:39:12.298Z,0.22
2023-04-02T01:41:51.506Z,0.20
2023-04-02T01:44:28.459Z,0.57
2023-04-02T01:46:58.757Z,0.32
2023-04-02T01:49:25.905Z,0.52
2023-04-02T01:51:56.800Z,0.38
2023-04-02T01:54:25.959Z,0.32
2023-04-02T01:56:52.811Z,0.10
2023-04-02T01:59:22.500Z,0.22
2023-04-02T02:02:01.510Z,0.13
2023-04-02T02:04:29.681Z,0.20
2023-04-02T02:06:58.675Z,0.20
2023-04-02T02:09:28.918Z,0.10
2023-04-02T02:11:57.673Z,0.03
2023-04-02T02:14:29.304Z,0.20
2023-04-02T02:17:02.025Z,0.35
2023-04-02T02:19:57.150Z,0.10
2023-04-02T02:22:39.971Z,0.20
2023-04-02T02:25:22.169Z,0.03
2023-04-02T02:28:01.141Z,0.13
2023-04-02T02:30:41.912Z,0.20
2023-04-02T02:33:21.670Z,0.10
2023-04-02T02:35:49.889Z,0.20
2023-04-02T02:38:55.616Z,0.28
2023-04-02T02:41:34.084Z,0.10
2023-04-02T02:44:06.642Z,0.47
2023-04-02T02:46:35.293Z,0.32
2023-04-02T02:49:06.212Z,0.10
2023-04-02T02:51:47.311Z,0.15
2023-04-02T02:54:19.809Z,0.40
2023-04-02T02:56:54.019Z,0.30
2023-04-02T02:59:22.222Z,0.10
2023-04-02T03:01:48.946Z,0.10
2023-04-02T03:04:22.633Z,0.17
2023-04-02T03:06:56.295Z,0.20
2023-04-02T03:09:33.357Z,0.40
2023-04-02T03:12:08.666Z,0.10
2023-04-02T03:14:41.889Z,0.10
2023-04-02T03:17:24.309Z,0.43
2023-04-02T03:20:25.323Z,0.20
2023-04-02T03:22:58.303Z,0.10
2023-04-02T03:25:48.314Z,0.52
2023-04-02T03:28:27.276Z,0.10
2023-04-02T03:31:08.921Z,0.15
2023-04-02T03:33:40.839Z,0.10
2023-04-02T03:36:19.436Z,0.10
2023-04-02T03:39:17.690Z,0.00
2023-04-02T03:41:53.288Z,0.00
2023-04-02T03:44:29.959Z,0.15
2023-04-02T03:47:05.013Z,0.10
2023-04-02T03:49:40.694Z,0.20
2023-04-02T03:52:36.068Z,0.10
2023-04-02T03:55:15.935Z,0.20
2023-04-02T03:57:54.157Z,0.10
2023-04-02T04:00:26.478Z,0.00
2023-04-02T04:03:03.169Z,0.10
2023-04-02T04:05:37.883Z,0.15
2023-04-02T04:08:18.734Z,0.00
2023-04-02T04:10:50.753Z,0.00
2023-04-02T04:13:24.936Z,0.00
2023-04-02T04:15:57.701Z,0.20
2023-04-02T04:18:52.572Z,0.17
2023-04-02T04:21:37.753Z,0.13
2023-04-02T04:24:23.866Z,0.15
2023-04-02T04:27:10.100Z,0.00
2023-04-02T04:29:46.774Z,0.15
2023-04-02T04:32:50.073Z,0.30
2023-04-02T04:35:27.636Z,0.10
2023-04-02T04:38:12.144Z,0.10
2023-04-02T04:40:53.898Z,0.00
2023-04-02T04:43:47.928Z,0.10
2023-04-02T04:46:25.562Z,0.22
2023-04-02T04:48:53.269Z,0.30
2023-04-02T04:51:25.569Z,0.40
2023-04-02T04:53:55.759Z,0.10
2023-04-02T04:56:29.372Z,0.10
2023-04-02T04:59:15.803Z,0.10
2023-04-02T05:01:53.780Z,0.13
2023-04-02T05:04:28.089Z,0.35
2023-04-02T05:07:12.120Z,0.00
2023-04-02T05:09:45.397Z,0.32
2023-04-02T05:12:27.032Z,0.10
2023-04-02T05:17:33.462Z,0.20
2023-04-02T05:20:10.888Z,0.13
2023-04-02T05:22:52.887Z,0.00
2023-04-02T05:25:26.226Z,0.10
2023-04-02T05:28:11.362Z,0.20
2023-04-02T05:30:54.588Z,0.15
2023-04-02T05:33:28.583Z,0.30
2023-04-02T05:36:11.690Z,0.00
2023-04-02T05:38:49.506Z,0.03
2023-04-02T05:41:38.422Z,0.17
2023-04-02T05:44:08.613Z,0.10
2023-04-02T05:46:41.494Z,0.10
2023-04-02T05:49:20.163Z,0.05
2023-04-02T05:51:52.570Z,0.10
2023-04-02T05:54:29.111Z,0.15
2023-04-02T05:57:07.480Z,0.13
2023-04-02T05:59:41.344Z,0.30
2023-04-02T06:05:02.096Z,0.10
2023-04-02T06:07:54.012Z,0.25
2023-04-02T06:10:25.843Z,0.08
2023-04-02T06:13:03.319Z,0.57
2023-04-02T06:15:35.406Z,0.40
2023-04-02T06:18:17.277Z,0.30
2023-04-02T06:20:44.370Z,0.73
2023-04-02T06:23:16.977Z,0.65
2023-04-02T06:26:13.691Z,0.63
2023-04-02T06:28:49.013Z,0.40
2023-04-02T06:31:44.975Z,0.52
2023-04-02T06:34:17.289Z,0.55
2023-04-02T06:36:54.692Z,0.25
2023-04-02T06:39:25.163Z,0.30
2023-04-02T06:42:10.822Z,0.50
2023-04-02T06:44:56.786Z,0.35
2023-04-02T06:47:44.340Z,0.30
2023-04-02T06:50:23.296Z,0.47
2023-04-02T06:52:53.871Z,0.50
2023-04-02T06:55:27.494Z,0.90
2023-04-02T06:57:54.896Z,0.22
2023-04-02T07:00:30.731Z,0.22
2023-04-02T07:03:01.837Z,0.20
2023-04-02T07:05:28.559Z,0.40
2023-04-02T07:07:55.714Z,0.65
2023-04-02T07:10:22.553Z,0.47
2023-04-02T07:12:49.427Z,0.52
2023-04-02T07:15:19.284Z,0.28
2023-04-02T07:17:46.960Z,0.30
2023-04-02T07:20:30.378Z,0.35
2023-04-02T07:23:00.725Z,0.45
2023-04-02T07:25:27.583Z,0.28
2023-04-02T07:27:55.379Z,0.40
2023-04-02T07:30:22.024Z,0.50
2023-04-02T07:32:49.309Z,0.70
2023-04-02T07:35:16.156Z,0.28
2023-04-02T07:37:42.727Z,0.25
2023-04-02T07:40:18.291Z,0.43
2023-04-02T07:42:45.344Z,0.60
2023-04-02T07:45:12.952Z,0.57
2023-04-02T07:47:40.042Z,0.55
2023-04-02T07:50:08.284Z,0.45
2023-04-02T07:52:40.428Z,0.80
2023-04-02T07:55:08.179Z,0.68
2023-04-02T07:57:46.370Z,0.73
2023-04-02T08:00:14.482Z,0.80
2023-04-02T08:02:41.682Z,0.65
2023-04-02T08:07:35.605Z,0.60
2023-04-02T08:10:03.631Z,0.50
2023-04-02T08:12:30.165Z,0.85
2023-04-02T08:14:56.756Z,0.55
2023-04-02T08:17:23.620Z,0.90
2023-04-02T08:19:55.195Z,0.80
2023-04-02T08:22:22.015Z,0.38
2023-04-02T08:24:48.569Z,0.60
2023-04-02T08:27:15.365Z,0.40
2023-04-02T08:29:41.985Z,0.77
2023-04-02T08:32:12.728Z,0.50
2023-04-02T08:34:39.398Z,0.85
2023-04-02T08:37:05.981Z,0.60
2023-04-02T08:39:34.230Z,0.82
2023-04-02T08:42:25.146Z,0.73
2023-04-02T08:45:17.109Z,0.85
2023-04-02T08:47:53.485Z,0.75
2023-04-02T08:50:34.844Z,0.52
2023-04-02T08:53:14.692Z,0.43
2023-04-02T08:56:24.043Z,0.80
2023-04-02T09:01:47.219Z,0.90
2023-04-02T09:04:18.866Z,0.52
2023-04-02T09:06:47.100Z,0.55
2023-04-02T09:09:15.299Z,0.88
2023-04-02T09:11:53.745Z,0.52
2023-04-02T09:14:28.825Z,0.52
2023-04-02T09:17:02.047Z,0.50
2023-04-02T09:19:37.496Z,0.60
2023-04-02T09:22:17.393Z,0.65
2023-04-02T09:24:44.096Z,0.50
2023-04-02T09:27:18.745Z,0.35
2023-04-02T09:29:51.844Z,0.68
2023-04-02T09:32:23.059Z,0.52
2023-04-02T09:34:49.732Z,0.70
2023-04-02T09:37:19.469Z,0.40
2023-04-02T09:39:46.208Z,0.63
2023-04-02T09:42:35.085Z,0.22
2023-04-02T09:45:21.759Z,0.40
2023-04-02T09:47:50.473Z,0.43
2023-04-02T09:50:39.070Z,0.43
2023-04-02T09:53:27.824Z,0.68
2023-04-02T09:56:15.573Z,0.50
2023-04-02T09:58:44.477Z,0.50
2023-04-02T10:01:31.041Z,0.85
2023-04-02T10:03:59.682Z,0.40
2023-04-02T10:06:29.193Z,0.82
2023-04-02T10:08:56.148Z,0.40
2023-04-02T10:11:22.971Z,0.73
2023-04-02T10:14:01.083Z,0.82
2023-04-02T10:16:43.693Z,0.57
2023-04-02T10:19:25.078Z,0.50
2023-04-02T10:21:53.981Z,0.43
2023-04-02T10:24:20.713Z,0.65
2023-04-02T10:27:26.180Z,0.60
2023-04-02T10:30:17.854Z,0.52
2023-04-02T10:33:02.599Z,0.63
2023-04-02T10:38:19.705Z,0.52
2023-04-02T10:41:03.426Z,0.38
2023-04-02T10:43:39.143Z,0.93
2023-04-02T10:46:24.475Z,0.95
2023-04-02T10:48:57.242Z,0.60
2023-04-02T10:51:47.967Z,0.82
2023-04-02T10:54:37.947Z,0.47
2023-04-02T10:57:35.650Z,0.50
2023-04-02T11:00:09.442Z,0.80
2023-04-02T11:02:39.298Z,0.85
2023-04-02T11:05:19.196Z,0.70
2023-04-02T11:07:54.661Z,0.50
2023-04-02T11:10:22.282Z,0.35
2023-04-02T11:13:01.517Z,0.45
2023-04-02T11:15:29.803Z,0.73
2023-04-02T11:17:56.491Z,0.90
2023-04-02T11:23:12.784Z,0.50
2023-04-02T11:25:42.349Z,0.75
2023-04-02T11:28:25.033Z,1.13
2023-04-02T11:30:52.041Z,1.25
2023-04-02T11:33:44.053Z,1.05
2023-04-02T11:36:49.681Z,0.88
2023-04-02T11:39:53.376Z,1.10
2023-04-02T11:42:25.058Z,0.80
2023-04-02T11:44:56.094Z,0.85
2023-04-02T11:47:30.006Z,1.13
2023-04-02T11:49:57.862Z,1.55
2023-04-02T11:52:35.993Z,1.60
2023-04-02T11:55:29.262Z,1.55
2023-04-02T11:58:11.259Z,1.25
2023-04-02T12:01:18.173Z,1.75
2023-04-02T12:04:01.370Z,1.27
2023-04-02T12:06:54.891Z,1.42
2023-04-02T12:09:26.731Z,1.92
2023-04-02T12:11:59.677Z,1.20
2023-04-02T12:14:41.494Z,1.25
2023-04-02T12:17:26.973Z,1.33
2023-04-02T12:19:59.135Z,1.35
2023-04-02T12:22:29.105Z,1.13
2023-04-02T12:25:00.394Z,1.98
2023-04-02T12:27:29.696Z,1.58
2023-04-02T12:30:12.398Z,1.05
2023-04-02T12:32:39.045Z,2.00
2023-04-02T12:35:06.386Z,2.47
2023-04-02T12:37:33.030Z,2.60
2023-04-02T12:40:01.574Z,1.40
2023-04-02T12:42:32.363Z,2.08
2023-04-02T12:44:59.478Z,2.08
2023-04-02T12:47:26.754Z,1.83
2023-04-02T12:49:55.362Z,1.23
2023-04-02T12:52:28.439Z,1.80
2023-04-02T12:55:00.850Z,1.63
2023-04-02T12:57:27.456Z,1.50
2023-04-02T13:00:15.696Z,1.42
2023-04-02T13:02:47.268Z,1.73
2023-04-02T13:05:31.402Z,1.63
2023-04-02T13:07:58.057Z,1.95
2023-04-02T13:10:27.296Z,1.52
2023-04-02T13:13:03.174Z,1.17
2023-04-02T13:15:33.055Z,1.98
2023-04-02T13:18:05.187Z,2.03
2023-04-02T13:20:39.215Z,1.75
2023-04-02T13:23:31.429Z,2.13
2023-04-02T13:26:08.614Z,1.67
2023-04-02T13:28:35.365Z,1.63
2023-04-02T13:31:01.986Z,1.67
2023-04-02T13:33:28.624Z,1.90
2023-04-02T13:35:55.339Z,1.95
2023-04-02T13:38:22.306Z,2.15
2023-04-02T13:40:48.995Z,3.22
2023-04-02T13:43:20.582Z,2.80
2023-04-02T13:45:53.153Z,3.22
2023-04-02T13:48:19.927Z,2.45
2023-04-02T13:50:46.821Z,2.00
2023-04-02T13:53:22.633Z,2.83
2023-04-02T13:55:49.340Z,2.60
2023-04-02T13:58:15.980Z,2.67
2023-04-02T14:00:42.858Z,2.97
2023-04-02T14:03:18.505Z,3.42
2023-04-02T14:06:01.266Z,4.25
2023-04-02T14:08:46.752Z,3.58
2023-04-02T14:11:31.897Z,4.72
2023-04-02T14:14:04.535Z,3.53
2023-04-02T14:17:07.900Z,2.33
2023-04-02T14:20:06.601Z,2.13
2023-04-02T14:22:45.451Z,2.35
2023-04-02T14:25:39.098Z,2.40
2023-04-02T14:28:23.596Z,2.08
2023-04-02T14:31:09.703Z,1.85
2023-04-02T14:33:52.169Z,1.92
2023-04-02T14:36:51.862Z,1.48
2023-04-02T14:39:45.776Z,1.90
2023-04-02T14:42:17.149Z,2.08
2023-04-02T14:44:56.043Z,2.97
2023-04-02T14:47:29.487Z,2.03
2023-04-02T14:50:02.926Z,1.60
2023-04-02T14:52:33.437Z,2.42
2023-04-02T14:55:07.225Z,2.55
2023-04-02T14:57:41.036Z,3.72
2023-04-02T15:00:26.123Z,1.60
2023-04-02T15:03:05.851Z,1.70
2023-04-02T15:05:46.579Z,2.28
2023-04-02T15:08:37.477Z,1.40
2023-04-02T15:11:26.046Z,2.20
2023-04-02T15:14:00.308Z,2.28
2023-04-02T15:16:27.693Z,1.50
2023-04-02T15:18:59.146Z,1.77
2023-04-02T15:22:06.962Z,1.73
2023-04-02T15:24:35.570Z,1.75
2023-04-02T15:27:25.407Z,1.52
2023-04-02T15:30:10.982Z,1.75
2023-04-02T15:32:42.766Z,1.17
2023-04-02T15:35:37.290Z,1.15
2023-04-02T15:38:26.446Z,1.17
2023-04-02T15:41:15.403Z,1.00
2023-04-02T15:43:48.234Z,1.15
2023-04-02T15:46:43.129Z,1.10
2023-04-02T15:49:21.796Z,0.82
2023-04-02T15:52:08.387Z,1.15
2023-04-02T15:54:52.153Z,0.88
2023-04-02T15:57:27.969Z,0.77
2023-04-02T16:00:04.171Z,0.75
2023-04-02T16:03:17.288Z,1.13
2023-04-02T16:05:56.163Z,1.13
2023-04-02T16:08:57.038Z,1.23
2023-04-02T16:11:25.791Z,0.88
2023-04-02T16:14:01.028Z,1.58
2023-04-02T16:16:34.231Z,0.70
2023-04-02T16:19:16.026Z,1.02
2023-04-02T16:22:08.028Z,0.88
2023-04-02T16:24:34.653Z,1.13
2023-04-02T16:27:26.424Z,1.23
2023-04-02T16:30:10.897Z,0.82
2023-04-02T16:33:06.977Z,1.25
2023-04-02T16:36:01.358Z,0.90
2023-04-02T16:38:33.952Z,1.00
2023-04-02T16:41:21.855Z,1.10
2023-04-02T16:44:28.327Z,1.15
2023-04-02T16:47:04.340Z,0.80
2023-04-02T16:49:43.593Z,0.82
2023-04-02T16:52:29.129Z,1.00
2023-04-02T16:55:25.903Z,0.70
2023-04-02T16:58:14.111Z,0.73
2023-04-02T17:01:11.708Z,0.52
2023-04-02T17:04:00.718Z,0.50
2023-04-02T17:07:05.822Z,0.80
2023-04-02T17:09:53.723Z,0.65
2023-04-02T17:12:21.900Z,0.70
2023-04-02T17:14:54.717Z,0.70
2023-04-02T17:17:23.506Z,0.75
2023-04-02T17:19:58.662Z,0.73
2023-04-02T17:22:25.669Z,0.63
2023-04-02T17:25:04.292Z,0.95
2023-04-02T17:27:39.365Z,0.80
2023-04-02T17:30:25.720Z,0.50
2023-04-02T17:32:52.868Z,0.90
2023-04-02T17:35:54.976Z,0.80
2023-04-02T17:38:39.948Z,0.63
2023-04-02T17:41:38.887Z,0.52
2023-04-02T17:44:39.768Z,0.73
2023-04-02T17:47:21.074Z,0.55
2023-04-02T17:50:16.879Z,0.60
2023-04-02T17:53:04.055Z,0.60
2023-04-02T17:56:08.277Z,0.47
2023-04-02T17:58:44.025Z,0.85
2023-04-02T18:01:15.442Z,0.70
2023-04-02T18:03:56.554Z,0.80
2023-04-02T18:06:29.360Z,1.15
2023-04-02T18:09:34.809Z,0.60
2023-04-02T18:12:18.476Z,0.77
2023-04-02T18:15:09.643Z,0.88
2023-04-02T18:17:58.476Z,0.63
2023-04-02T18:20:31.215Z,0.80
2023-04-02T18:23:28.499Z,1.00
2023-04-02T18:26:07.221Z,0.98
2023-04-02T18:28:41.552Z,0.60
2023-04-02T18:31:22.082Z,1.00
2023-04-02T18:33:54.752Z,0.73
2023-04-02T18:37:01.074Z,0.75
2023-04-02T18:39:45.705Z,0.88
2023-04-02T18:42:40.111Z,0.90
2023-04-02T18:45:30.823Z,0.90
2023-04-02T18:48:12.446Z,1.40
2023-04-02T18:50:40.742Z,1.08
2023-04-02T18:53:17.105Z,1.25
2023-04-02T18:55:56.240Z,0.80
2023-04-02T18:58:39.202Z,1.33
2023-04-02T19:01:09.784Z,0.88
2023-04-02T19:03:45.465Z,0.80
2023-04-02T19:06:29.506Z,1.10
2023-04-02T19:09:03.100Z,0.88
2023-04-02T19:14:02.744Z,0.82
2023-04-02T19:16:43.038Z,0.70
2023-04-02T19:19:19.101Z,0.57
2023-04-02T19:21:51.621Z,1.00
2023-04-02T19:24:46.263Z,0.77
2023-04-02T19:27:28.237Z,0.88
2023-04-02T19:29:54.769Z,0.77
2023-04-02T19:32:47.088Z,0.60
2023-04-02T19:35:28.611Z,0.52
2023-04-02T19:38:14.149Z,0.50
2023-04-02T19:40:53.676Z,0.98
2023-04-02T19:43:20.602Z,1.00
2023-04-02T19:45:49.279Z,0.50
2023-04-02T19:50:46.415Z,1.00
2023-04-02T19:53:14.029Z,0.70
2023-04-02T19:55:44.701Z,0.63
2023-04-02T19:58:35.812Z,0.60
2023-04-02T20:01:03.127Z,0.68
2023-04-02T20:03:30.768Z,1.20
2023-04-02T20:05:59.651Z,0.93
2023-04-02T20:08:27.666Z,0.70
2023-04-02T20:10:55.517Z,0.98
2023-04-02T20:13:22.392Z,1.20
2023-04-02T20:15:49.710Z,1.40
2023-04-02T20:18:16.499Z,1.23
2023-04-02T20:20:49.011Z,0.82
2023-04-02T20:23:16.922Z,1.20
2023-04-02T20:25:48.488Z,1.40
2023-04-02T20:28:15.138Z,1.20
2023-04-02T20:30:42.018Z,1.08
2023-04-02T20:33:09.052Z,1.15
2023-04-02T20:35:37.550Z,1.02
2023-04-02T20:38:06.645Z,1.02
2023-04-02T20:40:33.447Z,0.93
2023-04-02T20:43:00.234Z,0.90
2023-04-02T20:45:29.198Z,0.70
2023-04-02T20:47:55.888Z,0.90
2023-04-02T20:50:22.437Z,1.08
2023-04-02T20:52:49.023Z,1.30
2023-04-02T20:55:15.981Z,1.05
2023-04-02T20:57:42.624Z,1.27
2023-04-02T21:00:10.204Z,1.15
2023-04-02T21:02:36.827Z,1.30
2023-04-02T21:05:04.006Z,1.33
2023-04-02T21:07:30.951Z,0.88
2023-04-02T21:09:57.549Z,1.25
2023-04-02T21:12:25.094Z,1.30
2023-04-02T21:17:24.323Z,1.40
2023-04-02T21:19:50.855Z,1.25
2023-04-02T21:22:17.533Z,1.63
2023-04-02T21:24:44.192Z,1.00
2023-04-02T21:27:11.088Z,1.10
2023-04-02T21:29:38.090Z,0.85
2023-04-02T21:32:14.506Z,1.00
2023-04-02T21:34:47.921Z,0.90
2023-04-02T21:37:14.586Z,0.80
2023-04-02T21:39:41.487Z,1.52
2023-04-02T21:42:08.162Z,0.93
2023-04-02T21:44:34.685Z,0.70
2023-04-02T21:47:01.236Z,0.88
2023-04-02T21:49:27.950Z,0.73
2023-04-02T21:51:54.567Z,0.90
2023-04-02T21:54:21.352Z,0.77
2023-04-02T21:56:48.686Z,0.60
2023-04-02T21:59:16.904Z,0.85
2023-04-02T22:01:46.399Z,0.30
2023-04-02T22:04:18.681Z,0.63
2023-04-02T22:06:46.226Z,0.90
2023-04-02T22:09:18.536Z,0.85
2023-04-02T22:11:47.910Z,0.93
2023-04-02T22:14:15.276Z,1.17
2023-04-02T22:16:42.401Z,0.88
2023-04-02T22:19:13.075Z,1.02
2023-04-02T22:21:40.671Z,0.95
2023-04-02T22:24:11.558Z,0.82
2023-04-02T22:26:40.155Z,1.38
2023-04-02T22:29:07.022Z,0.70
2023-04-02T22:31:35.066Z,1.00
2023-04-02T22:34:02.852Z,0.90
2023-04-02T22:36:30.263Z,0.82
2023-04-02T22:38:58.197Z,1.23
2023-04-02T22:41:29.666Z,0.80
2023-04-02T22:43:57.364Z,1.33
2023-04-02T22:46:25.779Z,0.70
2023-04-02T22:48:53.205Z,0.63
2023-04-02T22:51:21.796Z,0.82
2023-04-02T22:53:48.748Z,0.70
2023-04-02T22:56:18.075Z,0.95
2023-04-02T22:58:45.097Z,1.13
2023-04-02T23:01:17.450Z,0.65
2023-04-02T23:03:44.341Z,0.63
2023-04-02T23:06:13.720Z,1.20
2023-04-02T23:08:40.813Z,1.40
2023-04-02T23:11:15.403Z,1.25
2023-04-02T23:13:44.107Z,0.50
2023-04-02T23:16:12.957Z,1.05
2023-04-02T23:18:41.154Z,1.20
2023-04-02T23:21:07.958Z,0.50
2023-04-02T23:23:35.313Z,0.63
2023-04-02T23:26:22.490Z,0.90
2023-04-02T23:28:49.741Z,0.75
2023-04-02T23:31:21.243Z,0.57
2023-04-02T23:33:48.206Z,0.55
2023-04-02T23:36:24.772Z,0.88
2023-04-02T23:38:56.396Z,0.65
2023-04-02T23:41:26.454Z,0.40
2023-04-02T23:43:54.245Z,0.40
2023-04-02T23:48:50.432Z,0.75
2023-04-02T23:51:17.481Z,0.70
2023-04-02T23:53:45.227Z,0.50
2023-04-02T23:56:12.279Z,0.68
2023-04-02T23:58:39.026Z,1.27
